createdAt,value
2022-11-29T00:00:10.466Z,71.30
2022-11-29T00:02:43.982Z,71.01
2022-11-29T00:05:11.893Z,70.49
2022-11-29T00:19:04.553Z,71.15
2022-11-29T00:21:53.147Z,71.72
2022-11-29T00:24:21.404Z,71.13
2022-11-29T00:26:49.796Z,72.28
2022-11-29T00:29:17.720Z,71.02
2022-11-29T00:31:45.289Z,71.95
2022-11-29T00:34:13.188Z,72.44
2022-11-29T00:36:41.120Z,72.22
2022-11-29T00:39:11.969Z,72.62
2022-11-29T00:41:40.091Z,73.12
2022-11-29T00:44:08.737Z,73.78
2022-11-29T00:46:36.207Z,73.41
2022-11-29T00:49:04.428Z,73.16
2022-11-29T00:51:32.484Z,72.71
2022-11-29T00:54:00.026Z,71.88
2022-11-29T00:56:28.015Z,71.35
2022-11-29T00:58:55.611Z,71.42
2022-11-29T01:01:23.695Z,70.57
2022-11-29T01:03:51.806Z,70.19
2022-11-29T01:06:19.508Z,70.36
2022-11-29T01:08:48.329Z,69.58
2022-11-29T01:11:18.053Z,70.92
2022-11-29T01:13:45.651Z,70.31
2022-11-29T01:16:14.395Z,70.81
2022-11-29T01:18:42.893Z,70.37
2022-11-29T01:21:22.050Z,71.49
2022-11-29T01:23:51.042Z,72.30
2022-11-29T01:26:29.694Z,72.18
2022-11-29T01:28:59.070Z,71.29
2022-11-29T01:31:29.659Z,71.63
2022-11-29T01:34:00.124Z,70.56
2022-11-29T01:36:28.086Z,70.27
2022-11-29T01:39:22.502Z,69.57
2022-11-29T01:42:14.245Z,70.67
2022-11-29T01:45:04.504Z,71.42
2022-11-29T01:47:44.884Z,70.05
2022-11-29T01:50:29.171Z,71.37
2022-11-29T01:52:56.708Z,72.58
2022-11-29T01:55:25.191Z,73.41
2022-11-29T01:57:52.872Z,71.88
2022-11-29T02:00:21.060Z,71.84
2022-11-29T02:03:13.393Z,71.90
2022-11-29T02:05:43.767Z,70.47
2022-11-29T02:08:13.736Z,70.17
2022-11-29T02:11:09.780Z,70.86
2022-11-29T02:14:00.532Z,71.64
2022-11-29T02:16:56.409Z,72.35
2022-11-29T02:19:38.957Z,72.06
2022-11-29T02:22:17.726Z,72.30
2022-11-29T02:24:57.946Z,72.20
2022-11-29T02:27:30.024Z,71.32
2022-11-29T02:30:16.369Z,71.58
2022-11-29T02:32:50.090Z,72.28
2022-11-29T02:35:41.248Z,72.22
2022-11-29T02:38:24.314Z,72.09
2022-11-29T02:41:03.939Z,72.82
2022-11-29T02:43:31.880Z,71.92
2022-11-29T02:46:22.612Z,72.11
2022-11-29T02:49:17.208Z,73.60
2022-11-29T02:51:49.753Z,73.64
2022-11-29T02:54:57.411Z,72.99
2022-11-29T02:57:38.982Z,72.44
2022-11-29T03:00:09.025Z,73.18
2022-11-29T03:02:48.331Z,72.37
2022-11-29T03:05:42.912Z,73.16
2022-11-29T03:08:29.358Z,71.92
2022-11-29T03:11:20.478Z,71.53
2022-11-29T03:13:53.089Z,70.23
2022-11-29T03:17:03.063Z,71.36
2022-11-29T03:20:08.278Z,72.22
2022-11-29T03:23:01.488Z,72.13
2022-11-29T03:25:33.509Z,72.07
2022-11-29T03:28:07.422Z,71.60
2022-11-29T03:30:38.119Z,70.82
2022-11-29T03:33:12.939Z,71.23
2022-11-29T03:35:49.782Z,71.98
2022-11-29T03:38:32.956Z,70.23
2022-11-29T03:41:28.336Z,71.02
2022-11-29T03:44:11.472Z,71.49
2022-11-29T03:46:57.280Z,71.33
2022-11-29T03:50:03.646Z,69.70
2022-11-29T03:52:33.211Z,72.58
2022-11-29T03:55:12.610Z,72.59
2022-11-29T03:58:19.334Z,71.61
2022-11-29T04:00:50.360Z,72.73
2022-11-29T04:03:46.944Z,71.86
2022-11-29T04:06:24.495Z,71.48
2022-11-29T04:09:03.051Z,71.23
2022-11-29T04:12:06.885Z,71.27
2022-11-29T04:14:40.784Z,71.10
2022-11-29T04:17:42.611Z,72.24
2022-11-29T04:20:26.269Z,70.25
2022-11-29T04:23:28.345Z,70.34
2022-11-29T04:26:24.307Z,69.19
2022-11-29T04:29:06.714Z,69.72
2022-11-29T04:31:59.771Z,70.17
2022-11-29T04:34:45.665Z,69.40
2022-11-29T04:37:48.621Z,69.81
2022-11-29T04:40:25.850Z,68.82
2022-11-29T04:43:19.629Z,71.49
2022-11-29T04:46:11.222Z,71.40
2022-11-29T04:48:42.069Z,71.93
2022-11-29T04:51:48.245Z,71.39
2022-11-29T04:54:25.933Z,70.98
2022-11-29T04:57:07.593Z,71.68
2022-11-29T04:59:45.033Z,71.11
2022-11-29T05:02:33.730Z,71.10
2022-11-29T05:05:39.642Z,71.16
2022-11-29T05:08:12.871Z,70.34
2022-11-29T05:11:29.222Z,71.91
2022-11-29T05:14:21.763Z,70.58
2022-11-29T05:17:05.032Z,69.99
2022-11-29T05:20:10.479Z,70.79
2022-11-29T05:22:49.080Z,71.12
2022-11-29T05:25:45.519Z,72.81
2022-11-29T05:28:40.155Z,70.51
2022-11-29T05:31:30.654Z,70.87
2022-11-29T05:34:34.532Z,71.28
2022-11-29T05:37:37.155Z,70.35
2022-11-29T05:40:20.754Z,70.90
2022-11-29T05:42:57.591Z,69.88
2022-11-29T05:46:08.236Z,69.72
2022-11-29T05:48:35.819Z,69.34
2022-11-29T05:51:41.166Z,70.80
2022-11-29T05:54:23.409Z,69.15
2022-11-29T05:57:26.786Z,70.26
2022-11-29T05:59:55.950Z,71.40
2022-11-29T06:02:27.032Z,70.07
2022-11-29T06:05:13.205Z,71.43
2022-11-29T06:07:51.780Z,71.60
2022-11-29T06:10:23.061Z,73.10
2022-11-29T06:13:22.121Z,72.22
2022-11-29T06:16:18.962Z,71.85
2022-11-29T06:18:59.611Z,72.58
2022-11-29T06:21:45.238Z,72.53
2022-11-29T06:24:36.126Z,72.45
2022-11-29T06:27:16.193Z,71.41
2022-11-29T06:30:02.405Z,71.23
2022-11-29T06:32:48.994Z,71.47
2022-11-29T06:35:28.818Z,71.25
2022-11-29T06:37:58.552Z,70.69
2022-11-29T06:40:26.549Z,70.34
2022-11-29T06:42:54.075Z,70.51
2022-11-29T06:45:25.525Z,68.50
2022-11-29T06:48:05.914Z,68.65
2022-11-29T06:51:00.786Z,69.14
2022-11-29T06:54:08.028Z,68.00
2022-11-29T06:57:12.017Z,69.46
2022-11-29T07:00:03.708Z,71.33
2022-11-29T07:03:06.831Z,70.85
2022-11-29T07:05:59.315Z,69.34
2022-11-29T07:08:39.864Z,69.15
2022-11-29T07:11:22.302Z,68.91
2022-11-29T07:14:14.394Z,70.14
2022-11-29T07:17:07.633Z,70.38
2022-11-29T07:19:55.743Z,71.20
2022-11-29T07:23:17.935Z,71.96
2022-11-29T07:26:33.479Z,70.38
2022-11-29T07:30:07.220Z,70.47
2022-11-29T07:33:25.742Z,68.75
2022-11-29T07:36:16.959Z,69.48
2022-11-29T07:39:31.117Z,71.04
2022-11-29T07:42:09.002Z,70.66
2022-11-29T07:45:12.439Z,71.44
2022-11-29T07:47:41.030Z,72.36
2022-11-29T07:50:28.278Z,70.92
2022-11-29T07:53:04.387Z,71.13
2022-11-29T07:55:57.575Z,71.53
2022-11-29T07:58:29.380Z,71.75
2022-11-29T08:01:17.265Z,71.79
2022-11-29T08:04:06.748Z,71.32
2022-11-29T08:06:49.140Z,70.70
2022-11-29T08:09:49.083Z,70.06
2022-11-29T08:12:19.120Z,70.03
2022-11-29T08:14:47.785Z,68.62
2022-11-29T08:17:15.592Z,68.06
2022-11-29T08:19:44.107Z,68.42
2022-11-29T08:22:25.958Z,68.05
2022-11-29T08:25:08.943Z,68.04
2022-11-29T08:28:03.821Z,69.55
2022-11-29T08:30:43.662Z,70.30
2022-11-29T08:33:38.755Z,71.16
2022-11-29T08:36:19.186Z,70.94
2022-11-29T08:39:08.867Z,70.95
2022-11-29T08:41:44.895Z,71.12
2022-11-29T08:44:26.972Z,71.05
2022-11-29T08:47:29.350Z,69.25
2022-11-29T08:50:17.363Z,70.57
2022-11-29T08:53:30.409Z,70.40
2022-11-29T08:57:04.306Z,68.61
2022-11-29T08:59:06.060Z,69.76
2022-11-29T09:01:45.092Z,70.40
2022-11-29T09:04:38.676Z,69.92
2022-11-29T09:07:20.951Z,69.90
2022-11-29T09:10:08.420Z,68.28
2022-11-29T09:13:02.691Z,68.59
2022-11-29T09:15:43.551Z,67.42
2022-11-29T09:18:28.435Z,69.60
2022-11-29T09:21:13.709Z,68.33
2022-11-29T09:23:59.411Z,67.38
2022-11-29T09:26:42.646Z,67.58
2022-11-29T09:29:33.901Z,68.27
2022-11-29T09:32:01.317Z,68.16
2022-11-29T09:34:29.329Z,68.66
2022-11-29T09:36:56.800Z,69.59
2022-11-29T09:39:24.452Z,69.86
2022-11-29T09:42:31.050Z,69.06
2022-11-29T09:45:10.963Z,69.91
2022-11-29T09:48:05.015Z,70.48
2022-11-29T09:50:37.230Z,69.14
2022-11-29T09:53:21.168Z,67.82
2022-11-29T09:56:12.460Z,68.51
2022-11-29T09:59:14.410Z,68.42
2022-11-29T10:01:54.045Z,68.54
2022-11-29T10:04:26.920Z,69.62
2022-11-29T10:07:13.257Z,68.61
2022-11-29T10:09:51.010Z,68.49
2022-11-29T10:12:29.037Z,67.54
2022-11-29T10:15:20.692Z,66.79
2022-11-29T10:17:55.591Z,68.01
2022-11-29T10:20:30.484Z,67.42
2022-11-29T10:23:33.956Z,67.72
2022-11-29T10:26:02.174Z,67.17
2022-11-29T10:28:32.203Z,67.09
2022-11-29T10:31:08.913Z,67.14
2022-11-29T10:33:40.030Z,66.55
2022-11-29T10:36:29.410Z,67.92
2022-11-29T10:39:00.022Z,66.40
2022-11-29T10:41:28.760Z,65.85
2022-11-29T10:43:58.083Z,66.89
2022-11-29T10:46:30.375Z,65.24
2022-11-29T10:48:59.961Z,66.21
2022-11-29T10:51:27.991Z,66.11
2022-11-29T10:53:56.077Z,64.66
2022-11-29T10:56:29.445Z,64.01
2022-11-29T10:59:06.226Z,65.12
2022-11-29T11:01:38.427Z,65.23
2022-11-29T11:04:09.902Z,67.09
2022-11-29T11:06:51.365Z,65.21
2022-11-29T11:09:28.254Z,66.21
2022-11-29T11:11:58.674Z,66.56
2022-11-29T11:14:29.072Z,67.02
2022-11-29T11:17:16.328Z,66.88
2022-11-29T11:19:54.756Z,65.47
2022-11-29T11:22:24.424Z,65.04
2022-11-29T11:25:05.256Z,64.56
2022-11-29T11:27:40.135Z,66.17
2022-11-29T11:30:20.764Z,66.13
2022-11-29T11:33:15.873Z,66.37
2022-11-29T11:35:43.844Z,66.31
2022-11-29T11:38:17.128Z,66.40
2022-11-29T11:40:45.402Z,66.79
2022-11-29T11:43:20.586Z,66.72
2022-11-29T11:45:53.711Z,64.90
2022-11-29T11:48:22.126Z,67.28
2022-11-29T11:50:49.463Z,67.61
2022-11-29T11:53:24.307Z,66.49
2022-11-29T11:56:12.743Z,66.33
2022-11-29T11:58:43.286Z,66.94
2022-11-29T12:01:25.695Z,67.09
2022-11-29T12:03:59.595Z,66.37
2022-11-29T12:06:36.761Z,65.86
2022-11-29T12:09:36.587Z,66.51
2022-11-29T12:12:26.571Z,65.94
2022-11-29T12:15:24.175Z,64.55
2022-11-29T12:17:57.910Z,64.95
2022-11-29T12:20:53.215Z,65.95
2022-11-29T12:23:27.561Z,65.69
2022-11-29T12:26:04.985Z,64.05
2022-11-29T12:28:34.871Z,64.82
2022-11-29T12:31:37.668Z,64.78
2022-11-29T12:34:05.418Z,64.20
2022-11-29T12:36:46.749Z,64.83
2022-11-29T12:39:23.703Z,63.24
2022-11-29T12:41:58.744Z,64.21
2022-11-29T12:44:47.702Z,64.82
2022-11-29T12:47:35.825Z,63.42
2022-11-29T12:50:17.023Z,65.09
2022-11-29T12:52:48.299Z,65.21
2022-11-29T12:55:24.993Z,65.76
2022-11-29T12:58:18.395Z,65.10
2022-11-29T13:01:12.583Z,65.01
2022-11-29T13:03:58.883Z,64.71
2022-11-29T13:07:12.763Z,65.24
2022-11-29T13:09:48.777Z,63.18
2022-11-29T13:12:39.805Z,64.88
2022-11-29T13:15:10.741Z,65.25
2022-11-29T13:17:51.107Z,66.47
2022-11-29T13:20:52.921Z,65.79
2022-11-29T13:23:45.521Z,66.16
2022-11-29T13:26:24.248Z,66.24
2022-11-29T13:28:52.290Z,66.02
2022-11-29T13:31:25.743Z,65.14
2022-11-29T13:34:12.497Z,65.79
2022-11-29T13:36:58.697Z,65.46
2022-11-29T13:39:32.705Z,67.12
2022-11-29T13:42:19.104Z,65.82
2022-11-29T13:44:59.209Z,64.13
2022-11-29T13:47:26.912Z,65.45
2022-11-29T13:50:07.488Z,65.68
2022-11-29T13:52:44.015Z,65.01
2022-11-29T13:55:12.011Z,65.33
2022-11-29T13:58:15.347Z,65.86
2022-11-29T14:00:42.566Z,65.25
2022-11-29T14:03:30.851Z,66.62
2022-11-29T14:06:01.448Z,65.50
2022-11-29T14:09:17.991Z,65.62
2022-11-29T14:11:45.811Z,65.17
2022-11-29T14:14:13.894Z,64.51
2022-11-29T14:16:44.311Z,63.93
2022-11-29T14:19:24.332Z,64.82
2022-11-29T14:21:56.587Z,65.75
2022-11-29T14:24:33.619Z,65.74
2022-11-29T14:27:12.204Z,63.69
2022-11-29T14:29:55.364Z,65.91
2022-11-29T14:32:46.343Z,66.68
2022-11-29T14:35:22.680Z,65.95
2022-11-29T14:37:59.332Z,65.71
2022-11-29T14:40:42.845Z,66.23
2022-11-29T14:43:21.315Z,64.95
2022-11-29T14:46:08.103Z,66.97
2022-11-29T14:48:36.837Z,67.56
2022-11-29T14:51:15.684Z,67.06
2022-11-29T14:53:46.276Z,66.65
2022-11-29T14:56:49.843Z,67.82
2022-11-29T14:59:54.683Z,67.17
2022-11-29T15:03:08.599Z,64.97
2022-11-29T15:05:59.846Z,65.43
2022-11-29T15:09:36.781Z,65.09
2022-11-29T15:12:31.007Z,64.64
2022-11-29T15:15:24.572Z,65.24
2022-11-29T15:18:27.242Z,65.60
2022-11-29T15:21:32.329Z,66.27
2022-11-29T15:24:12.161Z,65.94
2022-11-29T15:26:49.871Z,65.86
2022-11-29T15:29:21.805Z,66.98
2022-11-29T15:32:04.147Z,65.23
2022-11-29T15:34:45.300Z,64.51
2022-11-29T15:37:34.596Z,65.10
2022-11-29T15:40:07.213Z,64.51
2022-11-29T15:42:50.500Z,65.26
2022-11-29T15:45:34.145Z,65.05
2022-11-29T15:48:31.127Z,63.95
2022-11-29T15:51:18.904Z,64.98
2022-11-29T15:54:00.403Z,65.04
2022-11-29T15:56:41.126Z,66.03
2022-11-29T15:59:33.307Z,65.61
2022-11-29T16:02:23.884Z,66.15
2022-11-29T16:04:54.509Z,66.71
2022-11-29T16:07:22.760Z,65.22
2022-11-29T16:09:57.999Z,65.51
2022-11-29T16:12:26.724Z,65.74
2022-11-29T16:14:56.592Z,66.58
2022-11-29T16:17:33.443Z,65.87
2022-11-29T16:20:18.779Z,65.76
2022-11-29T16:22:46.527Z,65.74
2022-11-29T16:25:18.763Z,65.29
2022-11-29T16:27:46.636Z,64.74
2022-11-29T16:30:25.956Z,65.03
2022-11-29T16:32:59.484Z,64.95
2022-11-29T16:35:33.946Z,64.96
2022-11-29T16:38:04.163Z,65.03
2022-11-29T16:40:35.481Z,64.90
2022-11-29T16:43:03.334Z,65.44
2022-11-29T16:45:36.133Z,66.94
2022-11-29T16:48:25.514Z,67.39
2022-11-29T16:51:13.333Z,65.88
2022-11-29T16:53:42.915Z,66.72
2022-11-29T16:56:12.534Z,66.21
2022-11-29T16:59:25.116Z,66.36
2022-11-29T17:01:31.156Z,66.64
2022-11-29T17:04:00.572Z,67.48
2022-11-29T17:06:29.471Z,66.94
2022-11-29T17:08:59.263Z,65.24
2022-11-29T17:11:27.230Z,65.83
2022-11-29T17:13:55.003Z,66.27
2022-11-29T17:16:24.425Z,67.11
2022-11-29T17:18:54.873Z,66.21
2022-11-29T17:21:25.187Z,65.54
2022-11-29T17:23:53.499Z,66.25
2022-11-29T17:26:21.922Z,66.72
2022-11-29T17:28:50.912Z,66.86
2022-11-29T17:31:23.427Z,66.81
2022-11-29T17:33:51.623Z,66.04
2022-11-29T17:36:20.666Z,65.23
2022-11-29T17:38:48.717Z,66.76
2022-11-29T17:41:21.092Z,67.04
2022-11-29T17:43:53.311Z,66.23
2022-11-29T17:46:26.539Z,66.22
2022-11-29T17:48:54.893Z,66.55
2022-11-29T17:54:12.110Z,66.24
2022-11-29T17:56:40.084Z,65.94
2022-11-29T17:59:07.781Z,65.39
2022-11-29T18:01:36.379Z,66.00
2022-11-29T18:04:06.106Z,66.09
2022-11-29T18:06:36.061Z,67.31
2022-11-29T18:09:05.239Z,67.87
2022-11-29T18:11:44.925Z,68.79
2022-11-29T18:14:16.087Z,67.83
2022-11-29T18:16:45.748Z,66.90
2022-11-29T18:19:15.657Z,66.71
2022-11-29T18:21:43.981Z,65.60
2022-11-29T18:24:11.818Z,66.73
2022-11-29T18:26:39.787Z,66.46
2022-11-29T18:29:08.215Z,66.45
2022-11-29T18:31:38.699Z,67.01
2022-11-29T18:34:09.656Z,67.05
2022-11-29T18:36:43.045Z,66.40
2022-11-29T18:39:16.473Z,67.21
2022-11-29T18:41:47.052Z,65.85
2022-11-29T18:44:17.394Z,66.58
2022-11-29T18:46:46.187Z,66.40
2022-11-29T18:49:15.885Z,65.83
2022-11-29T18:51:45.154Z,67.15
2022-11-29T18:54:18.310Z,68.85
2022-11-29T18:56:46.111Z,67.54
2022-11-29T18:59:19.034Z,67.26
2022-11-29T19:01:48.043Z,67.27
2022-11-29T19:04:21.121Z,66.93
2022-11-29T19:06:48.655Z,66.72
2022-11-29T19:09:19.240Z,66.11
2022-11-29T19:11:49.073Z,66.31
2022-11-29T19:14:17.293Z,66.30
2022-11-29T19:16:46.456Z,66.41
2022-11-29T19:19:21.282Z,67.03
2022-11-29T19:21:50.126Z,67.01
2022-11-29T19:24:18.344Z,65.51
2022-11-29T19:26:48.884Z,66.01
2022-11-29T19:29:17.382Z,65.50
2022-11-29T19:31:45.044Z,66.53
2022-11-29T19:34:12.657Z,65.62
2022-11-29T19:36:44.640Z,65.74
2022-11-29T19:39:17.411Z,64.94
2022-11-29T19:41:47.631Z,64.42
2022-11-29T19:44:26.525Z,66.15
2022-11-29T19:46:56.986Z,66.07
2022-11-29T19:49:24.934Z,65.39
2022-11-29T19:51:52.384Z,65.46
2022-11-29T19:54:20.683Z,64.69
2022-11-29T19:56:48.278Z,64.57
2022-11-29T19:59:15.896Z,65.61
2022-11-29T20:01:43.997Z,65.82
2022-11-29T20:04:13.812Z,65.26
2022-11-29T20:06:41.809Z,64.88
2022-11-29T20:09:15.611Z,66.77
2022-11-29T20:11:44.830Z,66.02
2022-11-29T20:14:14.770Z,65.99
2022-11-29T20:16:42.388Z,65.01
2022-11-29T20:19:13.777Z,66.50
2022-11-29T20:21:43.994Z,65.68
2022-11-29T20:24:13.993Z,65.68
2022-11-29T20:26:43.718Z,64.83
2022-11-29T20:29:12.145Z,64.45
2022-11-29T20:31:45.948Z,65.28
2022-11-29T20:34:16.917Z,65.14
2022-11-29T20:37:07.308Z,65.69
2022-11-29T20:39:47.510Z,65.59
2022-11-29T20:42:46.159Z,65.05
2022-11-29T20:45:15.351Z,64.89
2022-11-29T20:48:11.972Z,64.52
2022-11-29T20:50:40.529Z,64.38
2022-11-29T20:53:11.900Z,64.36
2022-11-29T20:55:44.901Z,64.50
2022-11-29T20:58:14.289Z,63.12
2022-11-29T21:00:41.920Z,63.75
2022-11-29T21:03:16.210Z,63.35
2022-11-29T21:05:44.331Z,63.05
2022-11-29T21:08:12.815Z,62.56
2022-11-29T21:10:40.727Z,61.12
2022-11-29T21:13:10.768Z,62.29
2022-11-29T21:15:40.393Z,62.19
2022-11-29T21:18:13.058Z,62.31
2022-11-29T21:20:41.180Z,62.35
2022-11-29T21:23:32.964Z,62.25
2022-11-29T21:26:10.753Z,62.10
2022-11-29T21:28:43.236Z,62.95
2022-11-29T21:31:12.006Z,62.56
2022-11-29T21:33:40.440Z,61.95
2022-11-29T21:36:09.377Z,61.73
2022-11-29T21:38:36.852Z,61.74
2022-11-29T21:41:04.780Z,61.88
2022-11-29T21:43:58.346Z,61.07
2022-11-29T21:46:21.086Z,60.84
2022-11-29T21:48:50.056Z,60.89
2022-11-29T21:51:17.695Z,62.11
2022-11-29T21:53:46.052Z,61.47
2022-11-29T21:56:15.280Z,61.13
2022-11-29T21:58:42.967Z,61.15
2022-11-29T22:01:14.117Z,61.44
2022-11-29T22:03:42.368Z,61.51
2022-11-29T22:06:16.579Z,60.70
2022-11-29T22:08:44.648Z,59.49
2022-11-29T22:11:14.655Z,60.11
2022-11-29T22:14:02.722Z,60.03
2022-11-29T22:16:30.632Z,59.75
2022-11-29T22:18:58.290Z,60.07
2022-11-29T22:21:25.826Z,60.13
2022-11-29T22:23:53.771Z,59.69
2022-11-29T22:26:22.013Z,59.35
2022-11-29T22:28:49.453Z,57.68
2022-11-29T22:31:17.374Z,57.94
2022-11-29T22:33:45.263Z,59.57
2022-11-29T22:36:13.228Z,59.06
2022-11-29T22:38:41.136Z,59.91
2022-11-29T22:41:10.821Z,59.55
2022-11-29T22:43:39.719Z,59.91
2022-11-29T22:46:18.584Z,59.31
2022-11-29T22:48:48.239Z,59.21
2022-11-29T22:51:18.889Z,59.64
2022-11-29T22:53:51.609Z,58.99
2022-11-29T22:56:22.599Z,59.17
2022-11-29T22:58:50.462Z,58.30
2022-11-29T23:01:23.747Z,58.57
2022-11-29T23:03:54.353Z,58.76
2022-11-29T23:06:24.743Z,58.22
2022-11-29T23:08:54.200Z,57.96
2022-11-29T23:11:24.197Z,58.17
2022-11-29T23:13:52.125Z,57.89
2022-11-29T23:16:23.219Z,58.48
2022-11-29T23:18:53.345Z,58.43
2022-11-29T23:21:23.424Z,57.99
2022-11-29T23:23:56.048Z,58.51
2022-11-29T23:26:30.342Z,58.28
2022-11-29T23:28:58.614Z,58.06
2022-11-29T23:31:28.968Z,58.35
2022-11-29T23:33:56.508Z,58.60
2022-11-29T23:36:23.929Z,58.58
2022-11-29T23:38:52.140Z,58.80
2022-11-29T23:41:19.668Z,58.34
2022-11-29T23:43:47.505Z,58.18
2022-11-29T23:46:20.352Z,58.32
2022-11-29T23:48:48.658Z,58.80
2022-11-29T23:51:17.584Z,58.79
2022-11-29T23:53:46.724Z,58.03
2022-11-29T23:56:16.571Z,58.84
2022-11-29T23:58:45.993Z,58.19
